Time;durP1;ratioP1;P1;durP2;ratioP2;P2;SDS_P1;SDS_P2;PMS_P1;PMS_P2;Temp;Humidity;BMP_temperature;BMP_pressure;BME280_temperature;BME280_humidity;BME280_pressure;Samples;Min_cycle;Max_cycle;Signal;HPM_P1;HPM_P2
2021/01/12 00:00:30;;;;;;;11.30;9.23;;;;;;;;;;5033511;28;20210;-57
2021/01/12 00:02:57;;;;;;;10.48;9.35;;;;;;;;;;5033386;28;20222;-57
2021/01/12 00:05:24;;;;;;;10.55;9.30;;;;;;;;;;5033364;28;20256;-57
2021/01/12 00:07:51;;;;;;;11.00;9.90;;;;;;;;;;5033375;28;20225;-57
2021/01/12 00:10:18;;;;;;;12.35;9.35;;;;;;;;;;5033832;28;20202;-56
2021/01/12 00:12:45;;;;;;;9.88;8.88;;;;;;;;;;5033739;28;20344;-57
2021/01/12 00:15:13;;;;;;;9.43;8.48;;;;;;;;;;5033509;28;20256;-57
2021/01/12 00:17:40;;;;;;;8.65;7.70;;;;;;;;;;5032949;28;20202;-57
2021/01/12 00:20:08;;;;;;;8.80;7.70;;;;;;;;;;5033221;28;20233;-57
2021/01/12 00:22:35;;;;;;;9.55;8.57;;;;;;;;;;5034044;28;20280;-57
2021/01/12 00:25:01;;;;;;;8.07;7.25;;;;;;;;;;5036954;28;20213;-57
2021/01/12 00:27:28;;;;;;;7.90;7.10;;;;;;;;;;5036806;28;20225;-56
2021/01/12 00:29:55;;;;;;;9.43;8.35;;;;;;;;;;5037186;28;20202;-56
2021/01/12 00:32:24;;;;;;;10.02;8.85;;;;;;;;;;5037095;28;20222;-56
2021/01/12 00:34:51;;;;;;;9.23;8.32;;;;;;;;;;5036771;28;20674;-56
2021/01/12 00:37:18;;;;;;;8.85;7.95;;;;;;;;;;5036789;28;20207;-56
2021/01/12 00:39:45;;;;;;;9.43;8.52;;;;;;;;;;5038895;28;20198;-57
2021/01/12 00:42:11;;;;;;;8.85;7.95;;;;;;;;;;5038804;28;20218;-56
2021/01/12 00:44:38;;;;;;;8.68;7.85;;;;;;;;;;5037820;28;20209;-56
2021/01/12 00:47:06;;;;;;;9.13;8.23;;;;;;;;;;5036638;28;20211;-56
2021/01/12 00:49:34;;;;;;;8.43;7.63;;;;;;;;;;5036937;28;20202;-56
2021/01/12 00:52:00;;;;;;;9.00;8.10;;;;;;;;;;5036840;28;20648;-56
2021/01/12 00:54:27;;;;;;;9.65;8.65;;;;;;;;;;5036310;28;20211;-56
2021/01/12 00:56:55;;;;;;;9.70;8.75;;;;;;;;;;5036958;28;20297;-55
2021/01/12 00:59:22;;;;;;;9.18;8.27;;;;;;;;;;5036614;28;20199;-56
2021/01/12 01:01:49;;;;;;;9.50;8.60;;;;;;;;;;5036510;28;20596;-55
2021/01/12 01:04:16;;;;;;;9.77;8.63;;;;;;;;;;5036151;28;20256;-55
2021/01/12 01:06:45;;;;;;;11.85;9.32;;;;;;;;;;5036533;28;20545;-56
2021/01/12 01:09:12;;;;;;;9.45;8.57;;;;;;;;;;5036407;28;20226;-57
2021/01/12 01:11:42;;;;;;;10.10;9.10;;;;;;;;;;5036244;28;20222;-55
2021/01/12 01:14:09;;;;;;;11.40;9.85;;;;;;;;;;5036269;28;20203;-55
2021/01/12 01:16:36;;;;;;;10.35;9.35;;;;;;;;;;5037020;28;20198;-55
2021/01/12 01:19:03;;;;;;;9.40;8.50;;;;;;;;;;5036200;28;20202;-55
2021/01/12 01:21:30;;;;;;;10.10;9.02;;;;;;;;;;5035996;28;20234;-57
2021/01/12 01:23:57;;;;;;;12.00;8.80;;;;;;;;;;5036180;28;20183;-56
2021/01/12 01:26:24;;;;;;;10.85;9.75;;;;;;;;;;5036098;28;20199;-57
2021/01/12 01:28:51;;;;;;;11.00;9.85;;;;;;;;;;5036038;28;20272;-57
2021/01/12 01:31:18;;;;;;;10.85;9.75;;;;;;;;;;5035536;28;20226;-56
2021/01/12 01:33:46;;;;;;;9.90;8.90;;;;;;;;;;5035669;28;20198;-57
2021/01/12 01:36:13;;;;;;;10.07;9.07;;;;;;;;;;5035502;28;20202;-57
2021/01/12 01:38:40;;;;;;;11.10;10.00;;;;;;;;;;5036459;28;20276;-57
2021/01/12 01:41:09;;;;;;;10.88;9.77;;;;;;;;;;5036448;28;20219;-54
2021/01/12 01:43:36;;;;;;;10.20;9.20;;;;;;;;;;5035851;28;20573;-57
2021/01/12 01:46:03;;;;;;;10.77;9.18;;;;;;;;;;5035562;28;20293;-57
2021/01/12 01:48:30;;;;;;;10.05;9.05;;;;;;;;;;5035360;28;20218;-57
2021/01/12 01:50:56;;;;;;;10.32;9.30;;;;;;;;;;5035639;28;20229;-57
2021/01/12 01:53:23;;;;;;;10.45;9.13;;;;;;;;;;5035306;28;20740;-56
2021/01/12 01:55:52;;;;;;;10.95;9.40;;;;;;;;;;5035624;28;20229;-55
2021/01/12 01:58:20;;;;;;;11.82;10.27;;;;;;;;;;5035157;28;20340;-55
2021/01/12 02:00:48;;;;;;;10.52;9.13;;;;;;;;;;5035530;28;20228;-56
2021/01/12 02:03:17;;;;;;;9.90;8.85;;;;;;;;;;5035434;28;20336;-56
2021/01/12 02:05:50;;;;;;;10.43;9.32;;;;;;;;;;5035438;28;20206;-55
2021/01/12 02:08:20;;;;;;;9.68;8.77;;;;;;;;;;5036205;28;20642;-56
2021/01/12 02:10:48;;;;;;;9.80;8.90;;;;;;;;;;5037549;28;20224;-56
2021/01/12 02:13:15;;;;;;;9.68;8.68;;;;;;;;;;5035360;28;20202;-56
2021/01/12 02:15:43;;;;;;;8.77;7.90;;;;;;;;;;5035270;28;20198;-56
2021/01/12 02:18:11;;;;;;;10.15;8.85;;;;;;;;;;5035138;28;20210;-56
2021/01/12 02:20:37;;;;;;;8.95;7.93;;;;;;;;;;5035065;28;20249;-56
2021/01/12 02:23:05;;;;;;;9.30;8.43;;;;;;;;;;5034648;28;20309;-55
2021/01/12 02:25:34;;;;;;;8.73;7.93;;;;;;;;;;5034720;28;20670;-55
2021/01/12 02:28:02;;;;;;;7.95;7.25;;;;;;;;;;5034997;28;20583;-55
2021/01/12 02:30:28;;;;;;;8.77;7.97;;;;;;;;;;5034920;28;20617;-55
2021/01/12 02:32:55;;;;;;;9.15;7.07;;;;;;;;;;5034774;28;20277;-56
2021/01/12 02:35:22;;;;;;;7.88;7.13;;;;;;;;;;5035513;28;20206;-56
2021/01/12 02:37:49;;;;;;;7.72;6.93;;;;;;;;;;5034507;28;20221;-57
2021/01/12 02:40:16;;;;;;;7.43;6.72;;;;;;;;;;5034723;28;20229;-56
2021/01/12 02:42:44;;;;;;;7.80;7.10;;;;;;;;;;5034560;28;20222;-56
2021/01/12 02:45:11;;;;;;;7.88;7.07;;;;;;;;;;5034252;28;20728;-56
2021/01/12 02:47:38;;;;;;;8.45;7.30;;;;;;;;;;5033493;28;20198;-57
2021/01/12 02:50:05;;;;;;;7.93;7.07;;;;;;;;;;5034427;28;20210;-56
2021/01/12 02:52:32;;;;;;;9.52;6.57;;;;;;;;;;5034004;28;20582;-56
2021/01/12 02:54:59;;;;;;;8.02;6.07;;;;;;;;;;5034055;28;20203;-56
2021/01/12 02:57:25;;;;;;;7.80;7.00;;;;;;;;;;5034372;28;20205;-56
2021/01/12 02:59:53;;;;;;;7.28;6.43;;;;;;;;;;5034242;28;20252;-57
2021/01/12 03:02:20;;;;;;;7.53;6.82;;;;;;;;;;5033804;28;20237;-56
2021/01/12 03:04:46;;;;;;;6.07;5.57;;;;;;;;;;5034115;28;20198;-56
2021/01/12 03:07:13;;;;;;;7.97;6.45;;;;;;;;;;5034081;28;20581;-56
2021/01/12 03:09:40;;;;;;;6.40;5.80;;;;;;;;;;5033645;28;20226;-58
2021/01/12 03:12:07;;;;;;;7.10;6.20;;;;;;;;;;5033879;28;20223;-56
2021/01/12 03:14:35;;;;;;;6.28;5.68;;;;;;;;;;5033612;28;20206;-57
2021/01/12 03:17:02;;;;;;;7.55;6.85;;;;;;;;;;5033900;28;20202;-56
2021/01/12 03:19:29;;;;;;;6.43;5.82;;;;;;;;;;5033943;28;20206;-56
2021/01/12 03:21:56;;;;;;;7.28;6.22;;;;;;;;;;5033564;28;20226;-56
2021/01/12 03:24:22;;;;;;;5.80;5.30;;;;;;;;;;5033587;28;20693;-56
2021/01/12 03:26:49;;;;;;;6.65;6.05;;;;;;;;;;5033592;28;20203;-56
2021/01/12 03:29:16;;;;;;;6.35;5.78;;;;;;;;;;5033426;28;20219;-56
2021/01/12 03:31:43;;;;;;;5.82;5.22;;;;;;;;;;5034271;28;20218;-56
2021/01/12 03:34:10;;;;;;;6.53;5.88;;;;;;;;;;5033695;28;20202;-57
2021/01/12 03:36:37;;;;;;;6.40;5.60;;;;;;;;;;5033685;28;20210;-57
2021/01/12 03:39:05;;;;;;;5.70;5.20;;;;;;;;;;5034157;28;20248;-57
2021/01/12 03:41:32;;;;;;;5.85;5.35;;;;;;;;;;5034522;28;20222;-56
2021/01/12 03:43:59;;;;;;;5.53;4.78;;;;;;;;;;5033507;28;20204;-54
2021/01/12 03:46:25;;;;;;;5.75;5.15;;;;;;;;;;5033493;28;20203;-55
2021/01/12 03:48:52;;;;;;;5.38;4.88;;;;;;;;;;5033227;28;20297;-55
2021/01/12 03:51:20;;;;;;;4.60;4.20;;;;;;;;;;5033389;28;20218;-55
2021/01/12 03:53:46;;;;;;;5.60;5.10;;;;;;;;;;5033471;28;20206;-56
2021/01/12 03:56:14;;;;;;;5.50;5.00;;;;;;;;;;5033457;28;20595;-56
2021/01/12 03:58:40;;;;;;;4.95;4.50;;;;;;;;;;5032767;28;20705;-56
2021/01/12 04:01:07;;;;;;;5.13;4.63;;;;;;;;;;5032906;28;20780;-56
2021/01/12 04:03:34;;;;;;;4.45;4.05;;;;;;;;;;5033435;28;20232;-56
2021/01/12 04:07:36;;;;;;;4.22;3.92;;;;;;;;;;5112393;27;20594;-58
2021/01/12 04:10:03;;;;;;;5.93;4.80;;;;;;;;;;5111218;28;20198;-58
2021/01/12 04:12:30;;;;;;;4.72;4.32;;;;;;;;;;5111116;28;20220;-58
2021/01/12 04:14:56;;;;;;;4.00;3.70;;;;;;;;;;5110854;28;20253;-58
2021/01/12 04:17:23;;;;;;;5.05;4.65;;;;;;;;;;5111145;28;20246;-58
2021/01/12 04:19:50;;;;;;;6.53;5.85;;;;;;;;;;5112299;28;20245;-57
2021/01/12 04:22:16;;;;;;;5.10;4.60;;;;;;;;;;5110894;28;20250;-57
2021/01/12 04:24:44;;;;;;;4.70;4.30;;;;;;;;;;5110636;28;20206;-57
2021/01/12 04:27:11;;;;;;;3.90;3.60;;;;;;;;;;5110749;28;20239;-57
2021/01/12 04:29:37;;;;;;;5.05;4.65;;;;;;;;;;5110389;28;20200;-57
2021/01/12 04:32:04;;;;;;;5.20;4.70;;;;;;;;;;5110646;28;20223;-58
2021/01/12 04:34:31;;;;;;;4.80;4.40;;;;;;;;;;5110993;28;20661;-58
2021/01/12 04:36:58;;;;;;;4.45;4.05;;;;;;;;;;5110347;28;20200;-58
2021/01/12 04:39:24;;;;;;;5.03;4.40;;;;;;;;;;5110523;28;20200;-58
2021/01/12 04:41:52;;;;;;;4.85;4.45;;;;;;;;;;5110606;28;20272;-58
2021/01/12 04:44:19;;;;;;;3.88;3.53;;;;;;;;;;5110482;28;20203;-58
2021/01/12 04:46:45;;;;;;;3.60;3.25;;;;;;;;;;5109997;28;20219;-57
2021/01/12 04:49:12;;;;;;;3.45;3.15;;;;;;;;;;5110867;28;20199;-58
2021/01/12 04:51:39;;;;;;;3.40;3.20;;;;;;;;;;5109881;28;20220;-58
2021/01/12 04:54:06;;;;;;;3.22;2.92;;;;;;;;;;5110246;28;20196;-58
2021/01/12 04:56:32;;;;;;;2.95;2.70;;;;;;;;;;5110282;28;20200;-58
2021/01/12 04:59:00;;;;;;;3.03;2.75;;;;;;;;;;5110072;28;20203;-58
2021/01/12 05:01:29;;;;;;;2.60;2.40;;;;;;;;;;5110265;28;20219;-58
2021/01/12 05:03:55;;;;;;;3.25;2.97;;;;;;;;;;5110392;28;20256;-57
2021/01/12 05:06:23;;;;;;;3.20;2.90;;;;;;;;;;5109886;28;20223;-58
2021/01/12 05:08:55;;;;;;;2.83;2.17;;;;;;;;;;5110397;28;20200;-57
2021/01/12 05:11:21;;;;;;;2.97;2.78;;;;;;;;;;5110008;28;20224;-57
2021/01/12 05:13:48;;;;;;;3.10;2.70;;;;;;;;;;5109632;28;20229;-57
2021/01/12 05:16:16;;;;;;;3.40;2.67;;;;;;;;;;5110693;28;20252;-58
2021/01/12 05:18:44;;;;;;;2.72;2.53;;;;;;;;;;5097933;28;20200;-57
2021/01/12 05:21:12;;;;;;;2.50;2.30;;;;;;;;;;5096574;28;20224;-57
2021/01/12 05:23:51;;;;;;;3.08;2.78;;;;;;;;;;5096162;28;20200;-57
2021/01/12 05:26:19;;;;;;;2.70;2.50;;;;;;;;;;5095515;28;20216;-57
2021/01/12 05:28:46;;;;;;;2.05;1.85;;;;;;;;;;5095764;28;20664;-58
2021/01/12 05:31:13;;;;;;;2.85;2.65;;;;;;;;;;5095608;28;20216;-57
2021/01/12 05:33:41;;;;;;;2.75;2.47;;;;;;;;;;5095580;28;20208;-57
2021/01/12 05:36:09;;;;;;;2.90;2.67;;;;;;;;;;5095623;28;20668;-56
2021/01/12 05:38:36;;;;;;;2.47;2.28;;;;;;;;;;5096710;28;20238;-58
2021/01/12 05:41:04;;;;;;;5.30;3.47;;;;;;;;;;5103509;28;20220;-58
2021/01/12 05:43:35;;;;;;;2.42;2.22;;;;;;;;;;5105622;28;20207;-58
2021/01/12 05:46:09;;;;;;;2.55;2.35;;;;;;;;;;5095726;28;20223;-58
2021/01/12 05:48:37;;;;;;;5.05;2.90;;;;;;;;;;5095705;28;20254;-58
2021/01/12 05:51:06;;;;;;;2.50;2.30;;;;;;;;;;5095522;28;20223;-58
2021/01/12 05:54:02;;;;;;;2.78;2.58;;;;;;;;;;5095426;28;20200;-58
2021/01/12 05:56:30;;;;;;;2.70;2.50;;;;;;;;;;5033145;28;20609;-58
2021/01/12 05:58:57;;;;;;;3.55;2.60;;;;;;;;;;5081509;28;20548;-57
2021/01/12 06:01:30;;;;;;;2.60;2.40;;;;;;;;;;5095242;28;20235;-58
2021/01/12 06:03:57;;;;;;;2.47;2.28;;;;;;;;;;5095225;28;20184;-58
2021/01/12 06:06:25;;;;;;;2.72;2.53;;;;;;;;;;5094569;28;20224;-58
2021/01/12 06:08:52;;;;;;;2.97;2.78;;;;;;;;;;5094830;28;20205;-58
2021/01/12 06:11:19;;;;;;;2.92;2.72;;;;;;;;;;5094800;28;20262;-58
2021/01/12 06:13:53;;;;;;;3.10;2.90;;;;;;;;;;5094828;28;20692;-57
2021/01/12 06:16:23;;;;;;;4.65;2.72;;;;;;;;;;5094671;28;20275;-57
2021/01/12 06:18:56;;;;;;;3.67;3.38;;;;;;;;;;5094906;28;20284;-57
2021/01/12 06:21:27;;;;;;;3.05;2.75;;;;;;;;;;5095514;28;20224;-57
2021/01/12 06:23:57;;;;;;;2.70;2.50;;;;;;;;;;5095646;28;20188;-57
2021/01/12 06:26:26;;;;;;;2.70;2.50;;;;;;;;;;5095199;28;20205;-57
2021/01/12 06:28:53;;;;;;;4.05;2.70;;;;;;;;;;5095456;28;20234;-58
2021/01/12 06:31:20;;;;;;;2.83;2.63;;;;;;;;;;5095420;28;20220;-57
2021/01/12 06:33:55;;;;;;;2.88;2.67;;;;;;;;;;5094451;28;20200;-57
2021/01/12 06:36:25;;;;;;;3.08;2.78;;;;;;;;;;5094548;28;20180;-58
2021/01/12 06:38:53;;;;;;;3.20;2.90;;;;;;;;;;5094411;28;20200;-57
2021/01/12 06:41:21;;;;;;;3.28;2.55;;;;;;;;;;5094257;28;20273;-57
2021/01/12 06:43:49;;;;;;;2.80;2.60;;;;;;;;;;5095179;28;20208;-58
2021/01/12 06:46:17;;;;;;;2.83;2.63;;;;;;;;;;5096282;28;20216;-59
2021/01/12 06:48:44;;;;;;;3.55;3.25;;;;;;;;;;5095429;28;20288;-59
2021/01/12 06:51:11;;;;;;;4.82;2.80;;;;;;;;;;5095271;28;20220;-58
2021/01/12 06:53:44;;;;;;;3.20;3.00;;;;;;;;;;5095796;28;20205;-58
2021/01/12 06:56:12;;;;;;;4.10;3.80;;;;;;;;;;5095512;28;20189;-59
2021/01/12 06:58:46;;;;;;;3.53;3.22;;;;;;;;;;5094217;28;20269;-57
2021/01/12 07:01:20;;;;;;;4.07;3.67;;;;;;;;;;5093882;28;20732;-59
2021/01/12 07:03:49;;;;;;;3.42;3.20;;;;;;;;;;5094107;28;20188;-58
2021/01/12 07:06:24;;;;;;;3.60;3.30;;;;;;;;;;5093634;28;20220;-58
2021/01/12 07:08:52;;;;;;;3.92;3.42;;;;;;;;;;5093869;28;20184;-59
2021/01/12 07:11:22;;;;;;;3.25;3.05;;;;;;;;;;5094489;28;20680;-59
2021/01/12 07:13:51;;;;;;;3.88;3.53;;;;;;;;;;5093523;28;20608;-57
2021/01/12 07:16:18;;;;;;;4.00;3.70;;;;;;;;;;5094620;28;20283;-60
2021/01/12 07:18:45;;;;;;;3.60;3.30;;;;;;;;;;5093521;28;20201;-57
2021/01/12 07:21:13;;;;;;;4.47;3.53;;;;;;;;;;5093535;28;20224;-58
2021/01/12 07:23:41;;;;;;;4.20;3.90;;;;;;;;;;5093921;28;20287;-58
2021/01/12 07:26:08;;;;;;;5.72;3.67;;;;;;;;;;5093520;28;20565;-57
2021/01/12 07:28:44;;;;;;;4.60;4.20;;;;;;;;;;5092929;28;20230;-57
2021/01/12 07:31:11;;;;;;;3.65;3.35;;;;;;;;;;5093465;28;20231;-58
2021/01/12 07:33:41;;;;;;;3.95;3.60;;;;;;;;;;5093148;28;20287;-58
2021/01/12 07:36:08;;;;;;;4.40;4.10;;;;;;;;;;5093001;28;20207;-57
2021/01/12 07:38:34;;;;;;;3.47;3.17;;;;;;;;;;5093031;28;20671;-58
2021/01/12 07:41:01;;;;;;;3.97;3.63;;;;;;;;;;5092400;28;20734;-58
2021/01/12 07:43:28;;;;;;;4.30;4.00;;;;;;;;;;5093066;28;20207;-56
2021/01/12 07:45:56;;;;;;;3.83;3.53;;;;;;;;;;5095726;28;20216;-56
2021/01/12 07:48:23;;;;;;;4.25;3.88;;;;;;;;;;5099253;28;20357;-60
2021/01/12 07:50:51;;;;;;;4.55;4.15;;;;;;;;;;5093983;28;20200;-59
2021/01/12 07:53:18;;;;;;;4.75;4.35;;;;;;;;;;5092898;28;20253;-60
2021/01/12 07:55:45;;;;;;;4.90;4.40;;;;;;;;;;5092767;28;20204;-58
2021/01/12 07:58:13;;;;;;;4.82;4.43;;;;;;;;;;5092806;28;20196;-56
2021/01/12 08:00:40;;;;;;;4.75;4.35;;;;;;;;;;5092527;28;20200;-58
2021/01/12 08:03:08;;;;;;;4.85;3.95;;;;;;;;;;5092655;28;20204;-58
2021/01/12 08:05:35;;;;;;;4.93;4.45;;;;;;;;;;5093505;28;20212;-58
2021/01/12 08:08:02;;;;;;;4.55;4.15;;;;;;;;;;5094825;28;20208;-57
2021/01/12 08:10:29;;;;;;;5.25;4.75;;;;;;;;;;5093225;28;20439;-56
2021/01/12 08:13:04;;;;;;;4.03;3.65;;;;;;;;;;5094646;28;20215;-56
2021/01/12 08:15:30;;;;;;;4.35;3.95;;;;;;;;;;5093320;28;20439;-57
2021/01/12 08:17:57;;;;;;;4.70;4.30;;;;;;;;;;5093562;28;20200;-57
2021/01/12 08:20:25;;;;;;;5.45;4.95;;;;;;;;;;5092737;28;20208;-57
2021/01/12 08:22:51;;;;;;;5.05;4.15;;;;;;;;;;5093009;28;20268;-57
2021/01/12 08:25:19;;;;;;;4.70;4.20;;;;;;;;;;5092732;28;20253;-58
2021/01/12 08:27:49;;;;;;;4.60;4.20;;;;;;;;;;5092409;28;20216;-58
2021/01/12 08:30:18;;;;;;;4.47;3.97;;;;;;;;;;5093433;28;20200;-58
2021/01/12 08:32:46;;;;;;;5.35;4.75;;;;;;;;;;5092303;28;20224;-58
2021/01/12 08:35:15;;;;;;;4.40;4.00;;;;;;;;;;5092319;28;20672;-57
2021/01/12 08:37:43;;;;;;;4.80;4.40;;;;;;;;;;5092863;28;20192;-57
2021/01/12 08:40:12;;;;;;;4.15;3.85;;;;;;;;;;5092969;28;20531;-60
2021/01/12 08:42:40;;;;;;;5.13;4.72;;;;;;;;;;5092419;28;20216;-56
2021/01/12 08:45:14;;;;;;;5.10;4.50;;;;;;;;;;5093150;28;20280;-58
2021/01/12 08:47:41;;;;;;;5.35;4.85;;;;;;;;;;5094156;28;20243;-59
2021/01/12 08:50:08;;;;;;;5.13;4.72;;;;;;;;;;5094942;28;20702;-58
2021/01/12 08:52:37;;;;;;;5.50;5.00;;;;;;;;;;5094257;28;20220;-57
2021/01/12 08:55:15;;;;;;;5.43;4.93;;;;;;;;;;5096965;28;20219;-59
2021/01/12 08:57:42;;;;;;;5.78;5.25;;;;;;;;;;5097679;28;20268;-60
2021/01/12 09:00:13;;;;;;;6.40;4.85;;;;;;;;;;5096330;28;20204;-56
2021/01/12 09:02:40;;;;;;;4.90;4.40;;;;;;;;;;5096500;28;20224;-56
2021/01/12 09:05:09;;;;;;;6.05;4.63;;;;;;;;;;5096208;28;20252;-58
2021/01/12 09:07:36;;;;;;;5.93;4.85;;;;;;;;;;5096453;28;20231;-58
2021/01/12 09:10:03;;;;;;;5.47;5.03;;;;;;;;;;5096370;28;20196;-57
2021/01/12 09:12:31;;;;;;;6.65;5.15;;;;;;;;;;5096105;28;20217;-58
2021/01/12 09:14:57;;;;;;;6.18;5.55;;;;;;;;;;5096149;28;20204;-57
2021/01/12 09:17:24;;;;;;;4.68;4.10;;;;;;;;;;5096036;28;20219;-57
2021/01/12 09:19:52;;;;;;;5.78;5.18;;;;;;;;;;5096073;28;20527;-56
2021/01/12 09:22:19;;;;;;;6.10;4.43;;;;;;;;;;5095711;28;20236;-58
2021/01/12 09:24:47;;;;;;;5.07;4.15;;;;;;;;;;5095798;28;20200;-57
2021/01/12 09:27:18;;;;;;;5.28;4.35;;;;;;;;;;5096328;28;20795;-57
2021/01/12 09:29:46;;;;;;;4.20;3.80;;;;;;;;;;5097380;28;20287;-57
2021/01/12 09:32:13;;;;;;;4.50;4.07;;;;;;;;;;5096176;28;20273;-57
2021/01/12 09:34:42;;;;;;;4.35;3.95;;;;;;;;;;5096298;28;20203;-57
2021/01/12 09:37:16;;;;;;;4.13;3.78;;;;;;;;;;5096387;28;20269;-59
2021/01/12 09:39:44;;;;;;;4.65;4.18;;;;;;;;;;5095928;28;20196;-57
2021/01/12 09:42:11;;;;;;;3.92;3.47;;;;;;;;;;5095634;28;20219;-58
2021/01/12 09:44:37;;;;;;;3.60;3.30;;;;;;;;;;5095732;28;20215;-57
2021/01/12 09:47:05;;;;;;;5.22;4.38;;;;;;;;;;5098802;28;20606;-59
2021/01/12 09:49:32;;;;;;;4.70;4.20;;;;;;;;;;5095939;28;20199;-58
2021/01/12 09:51:58;;;;;;;4.32;3.92;;;;;;;;;;5095898;28;20246;-57
2021/01/12 09:54:25;;;;;;;7.05;3.75;;;;;;;;;;5095195;28;20230;-57
2021/01/12 09:56:52;;;;;;;6.68;4.18;;;;;;;;;;5095591;28;20197;-59
2021/01/12 09:59:19;;;;;;;3.45;2.88;;;;;;;;;;5095475;28;20204;-57
2021/01/12 10:01:45;;;;;;;1.80;1.70;;;;;;;;;;5097566;28;20293;-59
2021/01/12 10:04:15;;;;;;;1.67;1.58;;;;;;;;;;5098357;28;20207;-59
2021/01/12 10:06:42;;;;;;;1.08;0.93;;;;;;;;;;5098078;28;20221;-58
2021/01/12 10:09:08;;;;;;;1.17;1.08;;;;;;;;;;5097116;28;20254;-57
2021/01/12 10:11:35;;;;;;;3.35;1.00;;;;;;;;;;5098178;28;20276;-56
2021/01/12 10:14:02;;;;;;;1.15;0.98;;;;;;;;;;5098097;28;20517;-56
2021/01/12 10:16:29;;;;;;;4.22;1.15;;;;;;;;;;5096562;28;20204;-57
2021/01/12 10:18:55;;;;;;;2.00;1.10;;;;;;;;;;5099617;28;20200;-58
2021/01/12 10:21:23;;;;;;;1.88;1.10;;;;;;;;;;5098619;28;20220;-60
2021/01/12 10:23:50;;;;;;;1.20;1.05;;;;;;;;;;5096001;28;20200;-58
2021/01/12 10:26:18;;;;;;;3.55;1.00;;;;;;;;;;5095433;28;20212;-57
2021/01/12 10:28:46;;;;;;;1.80;1.20;;;;;;;;;;5094735;28;20204;-57
2021/01/12 10:31:14;;;;;;;4.35;1.45;;;;;;;;;;5095839;28;20319;-57
2021/01/12 10:33:41;;;;;;;2.05;1.25;;;;;;;;;;5095631;28;20283;-54
2021/01/12 10:36:08;;;;;;;4.22;1.40;;;;;;;;;;5094283;28;20616;-57
2021/01/12 10:38:35;;;;;;;4.45;1.40;;;;;;;;;;5094155;28;20209;-57
2021/01/12 10:41:02;;;;;;;4.28;1.80;;;;;;;;;;5096364;28;20220;-57
2021/01/12 10:43:29;;;;;;;2.30;1.40;;;;;;;;;;5095322;28;20204;-58
2021/01/12 10:45:56;;;;;;;2.85;1.65;;;;;;;;;;5094488;28;20230;-57
2021/01/12 10:48:23;;;;;;;5.90;1.60;;;;;;;;;;5094576;28;20277;-56
2021/01/12 10:50:50;;;;;;;2.70;1.25;;;;;;;;;;5094834;28;20205;-57
2021/01/12 10:53:17;;;;;;;3.35;1.55;;;;;;;;;;5095100;28;20607;-57
2021/01/12 10:55:44;;;;;;;6.78;1.60;;;;;;;;;;5095026;28;20200;-56
2021/01/12 10:58:11;;;;;;;5.35;2.80;;;;;;;;;;5094197;28;20572;-56
2021/01/12 11:00:39;;;;;;;3.83;1.90;;;;;;;;;;5093688;28;20269;-57
2021/01/12 11:03:06;;;;;;;2.15;1.83;;;;;;;;;;5094082;28;20220;-57
2021/01/12 11:05:33;;;;;;;3.97;2.38;;;;;;;;;;5094988;28;20204;-56
2021/01/12 11:08:00;;;;;;;3.50;2.08;;;;;;;;;;5094977;28;20211;-57
2021/01/12 11:10:27;;;;;;;7.72;2.33;;;;;;;;;;5093529;28;20204;-57
2021/01/12 11:12:56;;;;;;;4.47;1.77;;;;;;;;;;5094445;28;20365;-58
2021/01/12 11:15:23;;;;;;;3.22;1.77;;;;;;;;;;5093538;28;20204;-57
2021/01/12 11:17:50;;;;;;;2.95;1.63;;;;;;;;;;5093404;28;20200;-57
2021/01/12 11:20:18;;;;;;;3.65;1.25;;;;;;;;;;5093909;28;20515;-57
2021/01/12 11:22:45;;;;;;;3.05;1.50;;;;;;;;;;5094128;28;20255;-57
2021/01/12 11:25:12;;;;;;;5.68;1.52;;;;;;;;;;5093467;28;20200;-56
2021/01/12 11:27:39;;;;;;;7.70;2.90;;;;;;;;;;5093834;28;20238;-57
2021/01/12 11:30:09;;;;;;;1.95;1.50;;;;;;;;;;5093655;28;20196;-58
2021/01/12 11:32:39;;;;;;;3.65;1.45;;;;;;;;;;5093503;28;20227;-57
2021/01/12 11:35:07;;;;;;;4.28;1.20;;;;;;;;;;5093154;28;20556;-57
2021/01/12 11:37:33;;;;;;;2.85;1.50;;;;;;;;;;5097063;28;20196;-57
2021/01/12 11:40:02;;;;;;;6.38;1.15;;;;;;;;;;5097336;28;20200;-55
2021/01/12 11:42:28;;;;;;;4.25;1.33;;;;;;;;;;5096414;28;20339;-58
2021/01/12 11:44:55;;;;;;;3.05;1.80;;;;;;;;;;5095602;28;20200;-57
2021/01/12 11:47:23;;;;;;;5.30;1.70;;;;;;;;;;5093533;28;20212;-58
2021/01/12 11:49:50;;;;;;;6.90;2.17;;;;;;;;;;5092703;28;20200;-57
2021/01/12 11:52:17;;;;;;;2.90;1.90;;;;;;;;;;5093274;28;20219;-57
2021/01/12 11:54:45;;;;;;;5.75;1.65;;;;;;;;;;5093511;28;20236;-57
2021/01/12 11:57:13;;;;;;;4.93;1.70;;;;;;;;;;5093368;28;20192;-57
2021/01/12 11:59:40;;;;;;;6.03;2.50;;;;;;;;;;5093050;28;20275;-56
2021/01/12 12:02:06;;;;;;;7.05;1.80;;;;;;;;;;5093320;28;20592;-57
2021/01/12 12:04:34;;;;;;;8.07;2.75;;;;;;;;;;5093900;28;20205;-57
2021/01/12 12:07:04;;;;;;;7.93;2.20;;;;;;;;;;5096399;28;20699;-58
2021/01/12 12:09:32;;;;;;;7.88;2.38;;;;;;;;;;5095452;28;20200;-57
2021/01/12 12:11:59;;;;;;;8.63;2.47;;;;;;;;;;5093363;28;20216;-58
2021/01/12 12:14:27;;;;;;;4.15;2.35;;;;;;;;;;5093144;28;20195;-58
2021/01/12 12:16:54;;;;;;;9.88;1.90;;;;;;;;;;5092706;28;20228;-57
2021/01/12 12:19:21;;;;;;;4.03;1.70;;;;;;;;;;5092625;28;20219;-56
2021/01/12 12:21:51;;;;;;;8.18;2.45;;;;;;;;;;5092796;28;20227;-58
2021/01/12 12:24:18;;;;;;;7.05;2.30;;;;;;;;;;5092816;28;20588;-58
2021/01/12 12:26:45;;;;;;;6.55;2.08;;;;;;;;;;5092621;28;20220;-57
2021/01/12 12:29:12;;;;;;;5.80;1.75;;;;;;;;;;5096279;28;20215;-58
2021/01/12 12:31:39;;;;;;;7.95;2.15;;;;;;;;;;5096567;28;20224;-57
2021/01/12 12:34:06;;;;;;;5.53;1.67;;;;;;;;;;5096329;28;20204;-57
2021/01/12 12:36:33;;;;;;;4.45;1.70;;;;;;;;;;5096250;28;20200;-57
2021/01/12 12:39:01;;;;;;;5.85;2.72;;;;;;;;;;5096276;28;20687;-57
2021/01/12 12:41:31;;;;;;;9.77;2.55;;;;;;;;;;5096642;28;20224;-57
2021/01/12 12:43:57;;;;;;;3.10;1.38;;;;;;;;;;5096294;28;20212;-58
2021/01/12 12:46:25;;;;;;;9.05;1.63;;;;;;;;;;5096120;28;20216;-57
2021/01/12 12:48:52;;;;;;;2.58;1.30;;;;;;;;;;5096417;28;20335;-56
2021/01/12 12:51:19;;;;;;;12.40;2.88;;;;;;;;;;5096163;28;20246;-57
2021/01/12 12:53:48;;;;;;;5.00;1.98;;;;;;;;;;5096376;28;20205;-58
2021/01/12 12:56:17;;;;;;;7.50;2.28;;;;;;;;;;5096673;28;20196;-56
2021/01/12 12:58:43;;;;;;;7.65;2.15;;;;;;;;;;5095917;28;20230;-55
2021/01/12 13:01:10;;;;;;;2.97;2.10;;;;;;;;;;5096184;28;20217;-56
2021/01/12 13:03:37;;;;;;;5.28;2.78;;;;;;;;;;5096393;28;20196;-57
2021/01/12 13:06:04;;;;;;;6.97;2.38;;;;;;;;;;5095643;28;20208;-57
2021/01/12 13:08:32;;;;;;;6.40;2.75;;;;;;;;;;5096152;28;20200;-57
2021/01/12 13:10:59;;;;;;;7.55;2.20;;;;;;;;;;5096155;28;20200;-57
2021/01/12 13:13:26;;;;;;;6.18;2.08;;;;;;;;;;5096199;28;20208;-57
2021/01/12 13:15:54;;;;;;;9.35;1.85;;;;;;;;;;5096040;28;20242;-56
2021/01/12 13:18:22;;;;;;;3.90;1.90;;;;;;;;;;5096684;28;20248;-57
2021/01/12 13:20:49;;;;;;;5.32;2.50;;;;;;;;;;5096361;28;20246;-58
2021/01/12 13:23:17;;;;;;;6.90;2.90;;;;;;;;;;5096654;28;20204;-58
2021/01/12 13:25:44;;;;;;;5.93;2.50;;;;;;;;;;5096718;28;20289;-57
2021/01/12 13:28:11;;;;;;;9.43;2.88;;;;;;;;;;5095481;28;20444;-58
2021/01/12 13:30:41;;;;;;;10.27;3.10;;;;;;;;;;5097972;28;20200;-58
2021/01/12 13:33:07;;;;;;;5.13;3.03;;;;;;;;;;5097905;28;20317;-55
2021/01/12 13:35:34;;;;;;;7.93;2.67;;;;;;;;;;5099718;28;20197;-57
2021/01/12 13:38:01;;;;;;;6.45;3.13;;;;;;;;;;5098599;28;20219;-57
2021/01/12 13:40:28;;;;;;;6.22;2.80;;;;;;;;;;5100432;28;20774;-57
2021/01/12 13:42:58;;;;;;;8.10;2.83;;;;;;;;;;5099269;28;20221;-57
2021/01/12 13:45:26;;;;;;;9.30;3.63;;;;;;;;;;5097411;28;20189;-58
2021/01/12 13:47:54;;;;;;;4.97;2.75;;;;;;;;;;5097965;28;20706;-58
2021/01/12 13:50:21;;;;;;;6.65;2.72;;;;;;;;;;5098554;28;20204;-56
2021/01/12 13:52:48;;;;;;;6.25;2.80;;;;;;;;;;5098573;28;20315;-58
2021/01/12 13:55:16;;;;;;;7.35;2.35;;;;;;;;;;5099237;28;20200;-58
2021/01/12 13:57:50;;;;;;;10.32;3.28;;;;;;;;;;5100447;28;20249;-58
2021/01/12 14:00:17;;;;;;;7.80;3.72;;;;;;;;;;5097920;28;20586;-58
2021/01/12 14:02:44;;;;;;;11.52;3.10;;;;;;;;;;5096415;28;20222;-58
2021/01/12 14:05:12;;;;;;;11.88;3.17;;;;;;;;;;5095149;28;20200;-56
2021/01/12 14:07:39;;;;;;;6.60;2.30;;;;;;;;;;5094882;28;20205;-56
2021/01/12 14:10:06;;;;;;;4.60;1.95;;;;;;;;;;5095735;28;20203;-57
2021/01/12 14:12:33;;;;;;;3.42;1.90;;;;;;;;;;5095454;28;20216;-56
2021/01/12 14:15:00;;;;;;;10.50;2.55;;;;;;;;;;5095618;28;20200;-57
2021/01/12 14:17:27;;;;;;;5.65;2.10;;;;;;;;;;5095729;28;20619;-57
2021/01/12 14:19:57;;;;;;;6.10;2.60;;;;;;;;;;5095481;28;20203;-56
2021/01/12 14:22:28;;;;;;;7.18;1.95;;;;;;;;;;5095001;28;20259;-56
2021/01/12 14:24:55;;;;;;;4.25;1.80;;;;;;;;;;5095146;28;20188;-56
2021/01/12 14:27:23;;;;;;;4.72;2.20;;;;;;;;;;5094706;28;20224;-57
2021/01/12 14:29:50;;;;;;;2.85;2.35;;;;;;;;;;5094667;28;20227;-55
2021/01/12 14:32:17;;;;;;;6.13;2.75;;;;;;;;;;5094878;28;20220;-56
2021/01/12 14:34:44;;;;;;;5.05;2.50;;;;;;;;;;5094383;28;20551;-56
2021/01/12 14:37:13;;;;;;;5.13;2.00;;;;;;;;;;5095093;28;20196;-58
2021/01/12 14:40:00;;;;;;;4.78;2.55;;;;;;;;;;5095528;28;20201;-58
2021/01/12 14:42:27;;;;;;;6.70;2.55;;;;;;;;;;5094803;28;20220;-56
2021/01/12 14:44:54;;;;;;;9.65;2.30;;;;;;;;;;5094300;28;20497;-57